sensor_id;sensor_type;location;lat;lon;timestamp;temperature;humidity
64034;SHT31;50280;49.864;8.638;2023-03-05T00:00:30;4.01;76.47
64034;SHT31;50280;49.864;8.638;2023-03-05T00:03:02;4.02;76.44
64034;SHT31;50280;49.864;8.638;2023-03-05T00:05:34;4.05;76.49
64034;SHT31;50280;49.864;8.638;2023-03-05T00:08:07;4.05;76.49
64034;SHT31;50280;49.864;8.638;2023-03-05T00:10:40;3.99;76.57
64034;SHT31;50280;49.864;8.638;2023-03-05T00:13:12;4.01;76.59
64034;SHT31;50280;49.864;8.638;2023-03-05T00:15:44;3.99;76.73
64034;SHT31;50280;49.864;8.638;2023-03-05T00:18:17;3.98;76.81
64034;SHT31;50280;49.864;8.638;2023-03-05T00:20:49;3.98;76.89
64034;SHT31;50280;49.864;8.638;2023-03-05T00:23:21;3.99;76.92
64034;SHT31;50280;49.864;8.638;2023-03-05T00:25:55;3.95;76.98
64034;SHT31;50280;49.864;8.638;2023-03-05T00:28:27;3.95;76.95
64034;SHT31;50280;49.864;8.638;2023-03-05T00:30:59;3.98;76.96
64034;SHT31;50280;49.864;8.638;2023-03-05T00:33:32;3.97;76.90
64034;SHT31;50280;49.864;8.638;2023-03-05T00:36:05;3.98;76.93
64034;SHT31;50280;49.864;8.638;2023-03-05T00:38:38;3.94;76.96
64034;SHT31;50280;49.864;8.638;2023-03-05T00:41:11;3.97;77.04
64034;SHT31;50280;49.864;8.638;2023-03-05T00:43:44;3.94;77.10
64034;SHT31;50280;49.864;8.638;2023-03-05T00:46:17;3.94;77.11
64034;SHT31;50280;49.864;8.638;2023-03-05T00:48:49;3.94;77.18
64034;SHT31;50280;49.864;8.638;2023-03-05T00:51:22;3.91;77.21
64034;SHT31;50280;49.864;8.638;2023-03-05T00:53:55;3.91;77.22
64034;SHT31;50280;49.864;8.638;2023-03-05T00:56:29;3.91;77.21
64034;SHT31;50280;49.864;8.638;2023-03-05T00:59:02;3.92;77.25
64034;SHT31;50280;49.864;8.638;2023-03-05T01:01:34;3.92;77.33
64034;SHT31;50280;49.864;8.638;2023-03-05T01:04:06;3.89;77.34
64034;SHT31;50280;49.864;8.638;2023-03-05T01:06:39;3.88;77.49
64034;SHT31;50280;49.864;8.638;2023-03-05T01:09:11;3.87;77.56
64034;SHT31;50280;49.864;8.638;2023-03-05T01:11:44;3.85;77.69
64034;SHT31;50280;49.864;8.638;2023-03-05T01:14:17;3.87;77.79
64034;SHT31;50280;49.864;8.638;2023-03-05T01:16:49;3.85;77.76
64034;SHT31;50280;49.864;8.638;2023-03-05T01:19:22;3.85;77.94
64034;SHT31;50280;49.864;8.638;2023-03-05T01:21:54;3.87;77.97
64034;SHT31;50280;49.864;8.638;2023-03-05T01:24:26;3.82;78.05
64034;SHT31;50280;49.864;8.638;2023-03-05T01:27:00;3.84;78.06
64034;SHT31;50280;49.864;8.638;2023-03-05T01:29:32;3.81;78.12
64034;SHT31;50280;49.864;8.638;2023-03-05T01:32:04;3.84;78.13
64034;SHT31;50280;49.864;8.638;2023-03-05T01:34:37;3.82;78.17
64034;SHT31;50280;49.864;8.638;2023-03-05T01:37:09;3.80;78.27
64034;SHT31;50280;49.864;8.638;2023-03-05T01:39:41;3.81;78.28
64034;SHT31;50280;49.864;8.638;2023-03-05T01:42:14;3.82;78.38
64034;SHT31;50280;49.864;8.638;2023-03-05T01:44:58;3.81;78.41
64034;SHT31;50280;49.864;8.638;2023-03-05T01:47:33;3.82;78.41
64034;SHT31;50280;49.864;8.638;2023-03-05T01:50:06;3.78;78.46
64034;SHT31;50280;49.864;8.638;2023-03-05T01:52:45;3.80;78.42
64034;SHT31;50280;49.864;8.638;2023-03-05T01:55:25;3.77;78.46
64034;SHT31;50280;49.864;8.638;2023-03-05T04:33:50;4.06;71.99
64034;SHT31;50280;49.864;8.638;2023-03-05T04:36:22;4.09;71.91
64034;SHT31;50280;49.864;8.638;2023-03-05T04:38:54;4.09;71.89
64034;SHT31;50280;49.864;8.638;2023-03-05T04:41:26;4.09;71.93
64034;SHT31;50280;49.864;8.638;2023-03-05T04:43:58;4.10;71.85
64034;SHT31;50280;49.864;8.638;2023-03-05T04:46:30;4.12;72.02
64034;SHT31;50280;49.864;8.638;2023-03-05T04:49:04;4.13;71.88
64034;SHT31;50280;49.864;8.638;2023-03-05T04:51:36;4.10;71.88
64034;SHT31;50280;49.864;8.638;2023-03-05T04:54:08;4.13;71.94
64034;SHT31;50280;49.864;8.638;2023-03-05T04:56:40;4.13;71.90
64034;SHT31;50280;49.864;8.638;2023-03-05T04:59:13;4.09;71.89
64034;SHT31;50280;49.864;8.638;2023-03-05T05:01:45;4.08;72.02
64034;SHT31;50280;49.864;8.638;2023-03-05T05:04:18;4.05;72.21
64034;SHT31;50280;49.864;8.638;2023-03-05T05:06:53;4.03;72.44
64034;SHT31;50280;49.864;8.638;2023-03-05T05:09:26;4.01;72.66
64034;SHT31;50280;49.864;8.638;2023-03-05T05:11:58;3.97;72.71
64034;SHT31;50280;49.864;8.638;2023-03-05T05:14:30;3.97;72.68
64034;SHT31;50280;49.864;8.638;2023-03-05T05:17:03;3.98;72.80
64034;SHT31;50280;49.864;8.638;2023-03-05T05:19:37;3.98;72.71
64034;SHT31;50280;49.864;8.638;2023-03-05T05:22:09;3.98;72.84
64034;SHT31;50280;49.864;8.638;2023-03-05T05:24:41;4.02;72.86
64034;SHT31;50280;49.864;8.638;2023-03-05T05:27:14;4.01;73.02
64034;SHT31;50280;49.864;8.638;2023-03-05T05:29:46;4.03;73.03
64034;SHT31;50280;49.864;8.638;2023-03-05T05:32:19;4.06;73.01
64034;SHT31;50280;49.864;8.638;2023-03-05T05:34:55;4.05;73.06
64034;SHT31;50280;49.864;8.638;2023-03-05T05:37:28;4.05;73.09
64034;SHT31;50280;49.864;8.638;2023-03-05T05:40:00;4.03;73.07
64034;SHT31;50280;49.864;8.638;2023-03-05T05:42:33;4.03;73.02
64034;SHT31;50280;49.864;8.638;2023-03-05T05:45:05;4.06;72.89
64034;SHT31;50280;49.864;8.638;2023-03-05T05:47:39;4.05;72.76
64034;SHT31;50280;49.864;8.638;2023-03-05T05:50:13;4.03;72.58
64034;SHT31;50280;49.864;8.638;2023-03-05T05:52:45;4.05;72.45
64034;SHT31;50280;49.864;8.638;2023-03-05T05:55:18;4.05;72.34
64034;SHT31;50280;49.864;8.638;2023-03-05T05:57:50;4.03;72.16
64034;SHT31;50280;49.864;8.638;2023-03-05T06:00:22;4.05;72.29
64034;SHT31;50280;49.864;8.638;2023-03-05T06:02:54;4.05;72.24
64034;SHT31;50280;49.864;8.638;2023-03-05T06:05:28;4.02;72.22
64034;SHT31;50280;49.864;8.638;2023-03-05T06:08:00;4.03;72.22
64034;SHT31;50280;49.864;8.638;2023-03-05T06:10:32;4.02;72.74
64034;SHT31;50280;49.864;8.638;2023-03-05T06:13:05;4.03;73.28
64034;SHT31;50280;49.864;8.638;2023-03-05T06:15:37;4.01;73.92
64034;SHT31;50280;49.864;8.638;2023-03-05T06:18:09;3.95;74.48
64034;SHT31;50280;49.864;8.638;2023-03-05T06:20:42;3.91;74.88
64034;SHT31;50280;49.864;8.638;2023-03-05T06:23:14;3.82;75.14
64034;SHT31;50280;49.864;8.638;2023-03-05T06:25:46;3.75;75.52
64034;SHT31;50280;49.864;8.638;2023-03-05T06:28:18;3.71;75.86
64034;SHT31;50280;49.864;8.638;2023-03-05T06:30:58;3.63;76.30
64034;SHT31;50280;49.864;8.638;2023-03-05T06:33:31;3.56;76.55
64034;SHT31;50280;49.864;8.638;2023-03-05T06:36:07;3.54;76.78
64034;SHT31;50280;49.864;8.638;2023-03-05T06:38:41;3.52;77.17
64034;SHT31;50280;49.864;8.638;2023-03-05T06:41:14;3.49;77.34
64034;SHT31;50280;49.864;8.638;2023-03-05T06:43:50;3.47;77.61
64034;SHT31;50280;49.864;8.638;2023-03-05T06:46:22;3.44;77.72
64034;SHT31;50280;49.864;8.638;2023-03-05T06:48:57;3.46;77.63
64034;SHT31;50280;49.864;8.638;2023-03-05T06:51:34;3.46;77.91
64034;SHT31;50280;49.864;8.638;2023-03-05T06:54:10;3.43;78.30
64034;SHT31;50280;49.864;8.638;2023-03-05T06:56:45;3.43;78.51
64034;SHT31;50280;49.864;8.638;2023-03-05T06:59:17;3.43;78.68
64034;SHT31;50280;49.864;8.638;2023-03-05T07:01:49;3.42;78.89
64034;SHT31;50280;49.864;8.638;2023-03-05T07:04:21;3.42;78.95
64034;SHT31;50280;49.864;8.638;2023-03-05T07:06:55;3.44;78.83
64034;SHT31;50280;49.864;8.638;2023-03-05T07:09:27;3.43;78.98
64034;SHT31;50280;49.864;8.638;2023-03-05T07:11:59;3.42;79.17
64034;SHT31;50280;49.864;8.638;2023-03-05T07:14:31;3.43;79.24
64034;SHT31;50280;49.864;8.638;2023-03-05T07:17:04;3.44;79.14
64034;SHT31;50280;49.864;8.638;2023-03-05T07:19:36;3.46;79.08
64034;SHT31;50280;49.864;8.638;2023-03-05T07:22:10;3.49;79.27
64034;SHT31;50280;49.864;8.638;2023-03-05T07:24:42;3.52;79.05
64034;SHT31;50280;49.864;8.638;2023-03-05T07:27:14;3.54;78.88
64034;SHT31;50280;49.864;8.638;2023-03-05T07:29:46;3.56;78.84
64034;SHT31;50280;49.864;8.638;2023-03-05T07:32:19;3.59;78.69
64034;SHT31;50280;49.864;8.638;2023-03-05T07:34:51;3.59;78.64
64034;SHT31;50280;49.864;8.638;2023-03-05T07:37:24;3.61;78.65
64034;SHT31;50280;49.864;8.638;2023-03-05T07:39:56;3.64;78.38
64034;SHT31;50280;49.864;8.638;2023-03-05T07:42:28;3.70;78.15
64034;SHT31;50280;49.864;8.638;2023-03-05T07:45:00;3.71;77.92
64034;SHT31;50280;49.864;8.638;2023-03-05T07:47:33;3.77;77.72
64034;SHT31;50280;49.864;8.638;2023-03-05T07:50:06;3.81;77.51
64034;SHT31;50280;49.864;8.638;2023-03-05T07:52:41;3.85;77.57
64034;SHT31;50280;49.864;8.638;2023-03-05T07:55:13;3.89;77.53
64034;SHT31;50280;49.864;8.638;2023-03-05T07:57:45;3.95;77.11
64034;SHT31;50280;49.864;8.638;2023-03-05T08:00:18;3.98;76.96
64034;SHT31;50280;49.864;8.638;2023-03-05T08:02:50;4.02;76.73
64034;SHT31;50280;49.864;8.638;2023-03-05T08:05:22;4.09;76.44
64034;SHT31;50280;49.864;8.638;2023-03-05T08:07:56;4.10;76.23
64034;SHT31;50280;49.864;8.638;2023-03-05T08:10:28;4.13;76.01
64034;SHT31;50280;49.864;8.638;2023-03-05T08:13:00;4.19;75.39
64034;SHT31;50280;49.864;8.638;2023-03-05T08:15:32;4.28;74.85
64034;SHT31;50280;49.864;8.638;2023-03-05T08:18:04;4.30;74.75
64034;SHT31;50280;49.864;8.638;2023-03-05T08:20:37;4.36;74.42
64034;SHT31;50280;49.864;8.638;2023-03-05T08:23:10;4.39;74.24
64034;SHT31;50280;49.864;8.638;2023-03-05T08:25:42;4.40;74.16
64034;SHT31;50280;49.864;8.638;2023-03-05T08:28:14;4.46;74.18
64034;SHT31;50280;49.864;8.638;2023-03-05T08:30:47;4.53;74.02
64034;SHT31;50280;49.864;8.638;2023-03-05T08:33:19;4.54;74.00
64034;SHT31;50280;49.864;8.638;2023-03-05T08:35:51;4.58;73.59
64034;SHT31;50280;49.864;8.638;2023-03-05T08:38:25;4.58;73.09
64034;SHT31;50280;49.864;8.638;2023-03-05T08:40:57;4.56;73.44
64034;SHT31;50280;49.864;8.638;2023-03-05T08:43:29;4.57;73.09
64034;SHT31;50280;49.864;8.638;2023-03-05T08:46:01;4.60;73.36
64034;SHT31;50280;49.864;8.638;2023-03-05T08:48:34;4.61;73.17
64034;SHT31;50280;49.864;8.638;2023-03-05T08:51:07;4.70;72.99
64034;SHT31;50280;49.864;8.638;2023-03-05T08:53:44;4.72;73.30
64034;SHT31;50280;49.864;8.638;2023-03-05T08:56:17;4.78;72.96
64034;SHT31;50280;49.864;8.638;2023-03-05T08:58:49;4.80;72.68
64034;SHT31;50280;49.864;8.638;2023-03-05T09:01:21;4.81;72.35
64034;SHT31;50280;49.864;8.638;2023-03-05T09:03:54;4.81;72.54
64034;SHT31;50280;49.864;8.638;2023-03-05T09:06:26;4.82;71.94
64034;SHT31;50280;49.864;8.638;2023-03-05T09:08:59;4.87;71.14
64034;SHT31;50280;49.864;8.638;2023-03-05T09:11:31;4.91;70.93
64034;SHT31;50280;49.864;8.638;2023-03-05T09:14:04;4.98;70.84
64034;SHT31;50280;49.864;8.638;2023-03-05T09:16:38;5.02;70.16
64034;SHT31;50280;49.864;8.638;2023-03-05T09:19:10;5.06;69.69
64034;SHT31;50280;49.864;8.638;2023-03-05T09:21:42;5.12;68.87
64034;SHT31;50280;49.864;8.638;2023-03-05T09:59:55;5.46;65.86
64034;SHT31;50280;49.864;8.638;2023-03-05T11:11:23;5.57;59.10
64034;SHT31;50280;49.864;8.638;2023-03-05T11:13:55;5.60;59.56
64034;SHT31;50280;49.864;8.638;2023-03-05T11:16:30;5.61;60.64
64034;SHT31;50280;49.864;8.638;2023-03-05T11:19:17;5.65;60.31
64034;SHT31;50280;49.864;8.638;2023-03-05T11:22:04;5.72;58.98
64034;SHT31;50280;49.864;8.638;2023-03-05T11:25:01;5.71;59.12
64034;SHT31;50280;49.864;8.638;2023-03-05T11:27:47;5.74;58.86
64034;SHT31;50280;49.864;8.638;2023-03-05T11:30:23;5.77;58.33
64034;SHT31;50280;49.864;8.638;2023-03-05T11:33:06;5.84;58.83
64034;SHT31;50280;49.864;8.638;2023-03-05T11:35:41;5.88;58.92
64034;SHT31;50280;49.864;8.638;2023-03-05T11:38:16;5.91;58.88
64034;SHT31;50280;49.864;8.638;2023-03-05T11:40:50;5.98;59.04
64034;SHT31;50280;49.864;8.638;2023-03-05T14:00:36;5.88;59.66
64034;SHT31;50280;49.864;8.638;2023-03-05T14:03:10;5.85;60.09
64034;SHT31;50280;49.864;8.638;2023-03-05T14:05:52;5.85;59.77
64034;SHT31;50280;49.864;8.638;2023-03-05T14:08:25;5.78;59.16
64034;SHT31;50280;49.864;8.638;2023-03-05T14:10:57;5.74;58.46
64034;SHT31;50280;49.864;8.638;2023-03-05T14:13:43;5.64;58.44
64034;SHT31;50280;49.864;8.638;2023-03-05T14:16:23;5.60;58.29
64034;SHT31;50280;49.864;8.638;2023-03-05T14:18:58;5.55;58.66
64034;SHT31;50280;49.864;8.638;2023-03-05T14:21:42;5.55;58.66
64034;SHT31;50280;49.864;8.638;2023-03-05T14:24:19;5.60;58.16
64034;SHT31;50280;49.864;8.638;2023-03-05T14:26:53;5.61;58.23
64034;SHT31;50280;49.864;8.638;2023-03-05T14:29:27;5.60;58.48
64034;SHT31;50280;49.864;8.638;2023-03-05T14:32:03;5.64;58.58
64034;SHT31;50280;49.864;8.638;2023-03-05T14:34:39;5.64;57.87
64034;SHT31;50280;49.864;8.638;2023-03-05T14:37:16;5.65;58.05
64034;SHT31;50280;49.864;8.638;2023-03-05T14:39:55;5.65;58.05
64034;SHT31;50280;49.864;8.638;2023-03-05T14:42:30;5.67;58.09
64034;SHT31;50280;49.864;8.638;2023-03-05T14:45:11;5.65;58.01
64034;SHT31;50280;49.864;8.638;2023-03-05T14:47:48;5.68;58.38
64034;SHT31;50280;49.864;8.638;2023-03-05T14:50:21;5.71;58.31
64034;SHT31;50280;49.864;8.638;2023-03-05T14:52:56;5.67;57.44
64034;SHT31;50280;49.864;8.638;2023-03-05T14:55:31;5.62;57.30
64034;SHT31;50280;49.864;8.638;2023-03-05T14:58:09;5.58;57.69
64034;SHT31;50280;49.864;8.638;2023-03-05T15:00:45;5.58;57.66
64034;SHT31;50280;49.864;8.638;2023-03-05T15:03:19;5.58;57.54
64034;SHT31;50280;49.864;8.638;2023-03-05T15:05:53;5.54;57.20
64034;SHT31;50280;49.864;8.638;2023-03-05T15:08:29;5.51;57.18
64034;SHT31;50280;49.864;8.638;2023-03-05T15:11:02;5.48;56.48
64034;SHT31;50280;49.864;8.638;2023-03-05T15:13:35;5.48;56.74
64034;SHT31;50280;49.864;8.638;2023-03-05T15:16:07;5.47;57.07
64034;SHT31;50280;49.864;8.638;2023-03-05T15:18:47;5.44;57.79
64034;SHT31;50280;49.864;8.638;2023-03-05T15:21:20;5.43;58.82
64034;SHT31;50280;49.864;8.638;2023-03-05T15:23:52;5.34;59.33
64034;SHT31;50280;49.864;8.638;2023-03-05T15:26:24;5.32;59.99
64034;SHT31;50280;49.864;8.638;2023-03-05T15:28:56;5.32;59.92
64034;SHT31;50280;49.864;8.638;2023-03-05T15:31:28;5.29;59.97
64034;SHT31;50280;49.864;8.638;2023-03-05T15:34:02;5.30;60.10
64034;SHT31;50280;49.864;8.638;2023-03-05T15:36:34;5.29;60.26
64034;SHT31;50280;49.864;8.638;2023-03-05T15:39:06;5.27;60.16
64034;SHT31;50280;49.864;8.638;2023-03-05T15:41:38;5.25;60.65
64034;SHT31;50280;49.864;8.638;2023-03-05T15:44:10;5.22;60.96
64034;SHT31;50280;49.864;8.638;2023-03-05T15:46:42;5.19;60.91
64034;SHT31;50280;49.864;8.638;2023-03-05T15:49:16;5.18;60.55
64034;SHT31;50280;49.864;8.638;2023-03-05T15:51:48;5.16;62.08
64034;SHT31;50280;49.864;8.638;2023-03-05T15:54:21;5.23;62.15
64034;SHT31;50280;49.864;8.638;2023-03-05T15:56:53;5.23;62.17
64034;SHT31;50280;49.864;8.638;2023-03-05T15:59:25;5.23;61.65
64034;SHT31;50280;49.864;8.638;2023-03-05T16:01:57;5.22;61.73
64034;SHT31;50280;49.864;8.638;2023-03-05T16:04:31;5.19;62.13
64034;SHT31;50280;49.864;8.638;2023-03-05T16:07:03;5.18;62.39
64034;SHT31;50280;49.864;8.638;2023-03-05T16:09:38;5.15;62.38
64034;SHT31;50280;49.864;8.638;2023-03-05T16:12:15;5.12;62.48
64034;SHT31;50280;49.864;8.638;2023-03-05T16:14:52;5.06;63.05
64034;SHT31;50280;49.864;8.638;2023-03-05T16:17:24;5.06;63.26
64034;SHT31;50280;49.864;8.638;2023-03-05T16:19:58;5.06;63.36
64034;SHT31;50280;49.864;8.638;2023-03-05T16:22:30;5.04;63.54
64034;SHT31;50280;49.864;8.638;2023-03-05T16:25:03;5.00;63.56
64034;SHT31;50280;49.864;8.638;2023-03-05T16:27:36;4.99;63.49
64034;SHT31;50280;49.864;8.638;2023-03-05T16:30:09;4.98;63.75
64034;SHT31;50280;49.864;8.638;2023-03-05T16:32:44;4.99;63.82
64034;SHT31;50280;49.864;8.638;2023-03-05T16:35:18;4.96;64.09
64034;SHT31;50280;49.864;8.638;2023-03-05T16:37:50;4.93;64.13
64034;SHT31;50280;49.864;8.638;2023-03-05T16:40:22;4.92;64.29
64034;SHT31;50280;49.864;8.638;2023-03-05T16:42:55;4.91;64.40
64034;SHT31;50280;49.864;8.638;2023-03-05T16:45:27;4.88;64.59
64034;SHT31;50280;49.864;8.638;2023-03-05T16:48:00;4.89;64.56
64034;SHT31;50280;49.864;8.638;2023-03-05T16:50:33;4.85;64.73
64034;SHT31;50280;49.864;8.638;2023-03-05T16:53:05;4.85;64.77
64034;SHT31;50280;49.864;8.638;2023-03-05T16:55:37;4.85;64.91
64034;SHT31;50280;49.864;8.638;2023-03-05T16:58:09;4.85;65.12
64034;SHT31;50280;49.864;8.638;2023-03-05T17:00:42;4.87;64.83
64034;SHT31;50280;49.864;8.638;2023-03-05T17:03:14;4.85;64.75
64034;SHT31;50280;49.864;8.638;2023-03-05T17:05:47;4.85;64.90
64034;SHT31;50280;49.864;8.638;2023-03-05T17:08:19;4.81;65.04
64034;SHT31;50280;49.864;8.638;2023-03-05T17:10:52;4.80;65.28
64034;SHT31;50280;49.864;8.638;2023-03-05T17:13:24;4.80;65.58
64034;SHT31;50280;49.864;8.638;2023-03-05T17:15:56;4.74;65.78
64034;SHT31;50280;49.864;8.638;2023-03-05T17:18:28;4.75;63.93
64034;SHT31;50280;49.864;8.638;2023-03-05T17:21:02;4.74;64.44
64034;SHT31;50280;49.864;8.638;2023-03-05T17:23:37;4.71;64.08
64034;SHT31;50280;49.864;8.638;2023-03-05T17:26:11;4.71;64.30
64034;SHT31;50280;49.864;8.638;2023-03-05T17:28:46;4.67;64.27
64034;SHT31;50280;49.864;8.638;2023-03-05T17:31:18;4.65;64.50
64034;SHT31;50280;49.864;8.638;2023-03-05T17:33:52;4.65;64.63
64034;SHT31;50280;49.864;8.638;2023-03-05T17:36:29;4.63;64.82
64034;SHT31;50280;49.864;8.638;2023-03-05T17:39:02;4.63;64.73
64034;SHT31;50280;49.864;8.638;2023-03-05T17:41:34;4.58;65.01
64034;SHT31;50280;49.864;8.638;2023-03-05T17:44:06;4.56;64.97
64034;SHT31;50280;49.864;8.638;2023-03-05T17:46:38;4.58;65.06
64034;SHT31;50280;49.864;8.638;2023-03-05T17:49:10;4.56;64.79
64034;SHT31;50280;49.864;8.638;2023-03-05T17:51:44;4.54;65.01
64034;SHT31;50280;49.864;8.638;2023-03-05T17:54:16;4.52;65.06
64034;SHT31;50280;49.864;8.638;2023-03-05T17:56:48;4.50;65.32
64034;SHT31;50280;49.864;8.638;2023-03-05T17:59:25;4.53;65.47
64034;SHT31;50280;49.864;8.638;2023-03-05T18:01:57;4.50;65.62
64034;SHT31;50280;49.864;8.638;2023-03-05T18:04:29;4.50;65.66
64034;SHT31;50280;49.864;8.638;2023-03-05T18:07:03;4.49;65.89
64034;SHT31;50280;49.864;8.638;2023-03-05T18:09:35;4.44;66.00
64034;SHT31;50280;49.864;8.638;2023-03-05T18:12:07;4.44;66.16
64034;SHT31;50280;49.864;8.638;2023-03-05T18:14:39;4.46;66.25
64034;SHT31;50280;49.864;8.638;2023-03-05T18:17:11;4.43;66.34
64034;SHT31;50280;49.864;8.638;2023-03-05T18:19:43;4.43;66.40
64034;SHT31;50280;49.864;8.638;2023-03-05T18:22:17;4.42;66.47
64034;SHT31;50280;49.864;8.638;2023-03-05T18:24:49;4.40;66.46
64034;SHT31;50280;49.864;8.638;2023-03-05T18:27:21;4.43;66.59
64034;SHT31;50280;49.864;8.638;2023-03-05T18:29:53;4.39;66.54
64034;SHT31;50280;49.864;8.638;2023-03-05T18:32:25;4.42;66.69
64034;SHT31;50280;49.864;8.638;2023-03-05T18:34:57;4.40;66.74
64034;SHT31;50280;49.864;8.638;2023-03-05T18:37:31;4.37;66.78
64034;SHT31;50280;49.864;8.638;2023-03-05T18:40:03;4.39;66.94
64034;SHT31;50280;49.864;8.638;2023-03-05T18:42:37;4.39;66.88
64034;SHT31;50280;49.864;8.638;2023-03-05T18:45:10;4.40;67.00
64034;SHT31;50280;49.864;8.638;2023-03-05T18:47:45;4.39;66.93
64034;SHT31;50280;49.864;8.638;2023-03-05T18:50:18;4.36;67.03
64034;SHT31;50280;49.864;8.638;2023-03-05T18:52:53;4.37;67.05
64034;SHT31;50280;49.864;8.638;2023-03-05T18:55:27;4.36;67.12
64034;SHT31;50280;49.864;8.638;2023-03-05T18:58:00;4.37;67.02
64034;SHT31;50280;49.864;8.638;2023-03-05T19:00:33;4.34;67.16
64034;SHT31;50280;49.864;8.638;2023-03-05T19:03:06;4.32;67.16
64034;SHT31;50280;49.864;8.638;2023-03-05T19:05:38;4.34;67.17
64034;SHT31;50280;49.864;8.638;2023-03-05T19:08:13;4.32;67.18
64034;SHT31;50280;49.864;8.638;2023-03-05T19:10:45;4.33;67.10
64034;SHT31;50280;49.864;8.638;2023-03-05T19:13:18;4.30;67.02
64034;SHT31;50280;49.864;8.638;2023-03-05T19:15:50;4.30;66.91
64034;SHT31;50280;49.864;8.638;2023-03-05T19:18:22;4.29;67.04
64034;SHT31;50280;49.864;8.638;2023-03-05T19:20:54;4.32;67.11
64034;SHT31;50280;49.864;8.638;2023-03-05T19:23:28;4.32;67.17
64034;SHT31;50280;49.864;8.638;2023-03-05T19:26:00;4.30;67.17
64034;SHT31;50280;49.864;8.638;2023-03-05T19:28:33;4.29;67.20
64034;SHT31;50280;49.864;8.638;2023-03-05T19:31:05;4.30;67.07
64034;SHT31;50280;49.864;8.638;2023-03-05T19:33:37;4.32;67.24
64034;SHT31;50280;49.864;8.638;2023-03-05T19:36:10;4.33;67.14
64034;SHT31;50280;49.864;8.638;2023-03-05T19:38:45;4.34;67.18
64034;SHT31;50280;49.864;8.638;2023-03-05T19:41:18;4.37;67.07
64034;SHT31;50280;49.864;8.638;2023-03-05T19:43:50;4.34;67.09
64034;SHT31;50280;49.864;8.638;2023-03-05T19:46:22;4.34;67.27
64034;SHT31;50280;49.864;8.638;2023-03-05T19:48:54;4.33;67.23
64034;SHT31;50280;49.864;8.638;2023-03-05T19:51:26;4.33;67.46
64034;SHT31;50280;49.864;8.638;2023-03-05T19:54:00;4.37;66.74
64034;SHT31;50280;49.864;8.638;2023-03-05T19:56:32;4.33;67.31
64034;SHT31;50280;49.864;8.638;2023-03-05T19:59:07;4.36;66.92
64034;SHT31;50280;49.864;8.638;2023-03-05T20:01:40;4.33;66.81
64034;SHT31;50280;49.864;8.638;2023-03-05T20:04:13;4.33;66.80
64034;SHT31;50280;49.864;8.638;2023-03-05T20:06:48;4.36;66.78
64034;SHT31;50280;49.864;8.638;2023-03-05T20:09:22;4.34;67.08
64034;SHT31;50280;49.864;8.638;2023-03-05T20:11:54;4.34;67.15
64034;SHT31;50280;49.864;8.638;2023-03-05T20:14:26;4.33;67.13
64034;SHT31;50280;49.864;8.638;2023-03-05T20:16:58;4.34;67.09
64034;SHT31;50280;49.864;8.638;2023-03-05T20:19:30;4.32;67.16
64034;SHT31;50280;49.864;8.638;2023-03-05T20:22:03;4.32;67.13
64034;SHT31;50280;49.864;8.638;2023-03-05T20:24:36;4.28;66.91
64034;SHT31;50280;49.864;8.638;2023-03-05T20:27:08;4.29;67.14
64034;SHT31;50280;49.864;8.638;2023-03-05T20:29:40;4.29;67.07
64034;SHT31;50280;49.864;8.638;2023-03-05T20:32:12;4.26;67.23
64034;SHT31;50280;49.864;8.638;2023-03-05T20:34:45;4.26;67.18
64034;SHT31;50280;49.864;8.638;2023-03-05T20:37:20;4.28;67.12
64034;SHT31;50280;49.864;8.638;2023-03-05T20:39:54;4.22;66.89
64034;SHT31;50280;49.864;8.638;2023-03-05T20:42:26;4.26;67.06
64034;SHT31;50280;49.864;8.638;2023-03-05T20:44:58;4.25;67.21
64034;SHT31;50280;49.864;8.638;2023-03-05T20:47:31;4.25;67.18
64034;SHT31;50280;49.864;8.638;2023-03-05T20:50:03;4.25;67.16
64034;SHT31;50280;49.864;8.638;2023-03-05T20:52:36;4.23;67.24
64034;SHT31;50280;49.864;8.638;2023-03-05T20:55:11;4.23;67.10
64034;SHT31;50280;49.864;8.638;2023-03-05T20:57:43;4.20;67.21
64034;SHT31;50280;49.864;8.638;2023-03-05T21:00:15;4.23;67.05
64034;SHT31;50280;49.864;8.638;2023-03-05T21:02:48;4.19;67.03
64034;SHT31;50280;49.864;8.638;2023-03-05T21:05:22;4.20;67.17
64034;SHT31;50280;49.864;8.638;2023-03-05T21:07:56;4.20;67.19
64034;SHT31;50280;49.864;8.638;2023-03-05T21:10:31;4.20;67.17
64034;SHT31;50280;49.864;8.638;2023-03-05T21:13:03;4.22;67.01
64034;SHT31;50280;49.864;8.638;2023-03-05T21:15:35;4.19;67.05
64034;SHT31;50280;49.864;8.638;2023-03-05T21:18:11;4.19;66.96
64034;SHT31;50280;49.864;8.638;2023-03-05T21:20:43;4.19;67.04
64034;SHT31;50280;49.864;8.638;2023-03-05T21:23:15;4.16;67.07
64034;SHT31;50280;49.864;8.638;2023-03-05T21:25:49;4.19;66.89
64034;SHT31;50280;49.864;8.638;2023-03-05T21:28:21;4.19;66.94
64034;SHT31;50280;49.864;8.638;2023-03-05T21:30:54;4.19;67.09
64034;SHT31;50280;49.864;8.638;2023-03-05T21:33:27;4.17;66.99
64034;SHT31;50280;49.864;8.638;2023-03-05T21:36:00;4.13;67.01
64034;SHT31;50280;49.864;8.638;2023-03-05T21:38:33;4.13;67.04
64034;SHT31;50280;49.864;8.638;2023-03-05T21:41:06;4.13;66.96
64034;SHT31;50280;49.864;8.638;2023-03-05T21:43:38;4.12;66.92
64034;SHT31;50280;49.864;8.638;2023-03-05T21:46:11;4.12;66.92
64034;SHT31;50280;49.864;8.638;2023-03-05T21:48:43;4.13;66.95
64034;SHT31;50280;49.864;8.638;2023-03-05T21:51:15;4.12;66.78
64034;SHT31;50280;49.864;8.638;2023-03-05T21:53:49;4.12;66.79
64034;SHT31;50280;49.864;8.638;2023-03-05T21:56:23;4.10;66.71
64034;SHT31;50280;49.864;8.638;2023-03-05T21:58:55;4.12;66.99
64034;SHT31;50280;49.864;8.638;2023-03-05T22:01:27;4.12;66.70
64034;SHT31;50280;49.864;8.638;2023-03-05T22:03:59;4.13;66.95
64034;SHT31;50280;49.864;8.638;2023-03-05T22:06:31;4.15;67.65
64034;SHT31;50280;49.864;8.638;2023-03-05T22:09:03;4.20;66.73
64034;SHT31;50280;49.864;8.638;2023-03-05T22:11:37;4.23;66.77
64034;SHT31;50280;49.864;8.638;2023-03-05T22:14:11;4.23;66.25
64034;SHT31;50280;49.864;8.638;2023-03-05T22:16:43;4.23;66.12
64034;SHT31;50280;49.864;8.638;2023-03-05T22:19:16;4.19;66.25
64034;SHT31;50280;49.864;8.638;2023-03-05T22:21:48;4.16;66.37
64034;SHT31;50280;49.864;8.638;2023-03-05T22:24:20;4.16;66.35
64034;SHT31;50280;49.864;8.638;2023-03-05T22:26:54;4.15;66.47
64034;SHT31;50280;49.864;8.638;2023-03-05T22:29:26;4.15;66.59
64034;SHT31;50280;49.864;8.638;2023-03-05T22:31:58;4.12;66.51
64034;SHT31;50280;49.864;8.638;2023-03-05T22:34:30;4.10;66.55
64034;SHT31;50280;49.864;8.638;2023-03-05T22:37:02;4.09;66.51
64034;SHT31;50280;49.864;8.638;2023-03-05T22:39:35;4.10;66.55
64034;SHT31;50280;49.864;8.638;2023-03-05T22:42:08;4.09;66.46
64034;SHT31;50280;49.864;8.638;2023-03-05T22:44:40;4.09;66.50
64034;SHT31;50280;49.864;8.638;2023-03-05T22:47:12;4.08;66.47
64034;SHT31;50280;49.864;8.638;2023-03-05T22:49:44;4.06;66.53
64034;SHT31;50280;49.864;8.638;2023-03-05T22:52:16;4.06;66.65
64034;SHT31;50280;49.864;8.638;2023-03-05T22:54:49;4.05;66.62
64034;SHT31;50280;49.864;8.638;2023-03-05T22:57:22;4.08;66.57
64034;SHT31;50280;49.864;8.638;2023-03-05T22:59:55;4.06;66.65